createdAt,value
2018-03-06T00:01:37.183Z,27.30
2018-03-06T00:06:40.547Z,26.73
2018-03-06T00:11:44.808Z,27.43
2018-03-06T00:16:47.448Z,26.57
2018-03-06T00:21:50.687Z,26.20
2018-03-06T00:26:53.233Z,25.27
2018-03-06T00:31:57.255Z,27.90
2018-03-06T00:37:00.630Z,27.33
2018-03-06T00:42:04.284Z,28.30
2018-03-06T00:47:08.006Z,27.33
2018-03-06T00:52:14.795Z,22.90
2018-03-06T00:57:18.194Z,24.90
2018-03-06T01:02:20.890Z,23.43
2018-03-06T01:07:25.128Z,27.80
2018-03-06T01:12:27.888Z,25.17
2018-03-06T01:17:30.872Z,27.40
2018-03-06T01:22:33.780Z,29.33
2018-03-06T01:27:38.128Z,25.93
2018-03-06T01:32:41.531Z,27.77
2018-03-06T01:37:46.451Z,25.10
2018-03-06T01:42:49.458Z,27.30
2018-03-06T01:47:55.478Z,26.77
2018-03-06T01:52:59.163Z,30.30
2018-03-06T01:58:02.042Z,27.10
2018-03-06T02:03:05.331Z,26.10
2018-03-06T02:08:08.779Z,22.30
2018-03-06T02:13:11.705Z,29.30
2018-03-06T02:18:14.351Z,29.40
2018-03-06T02:23:16.967Z,29.17
2018-03-06T02:28:20.466Z,26.60
2018-03-06T02:33:24.565Z,29.83
2018-03-06T02:38:27.870Z,29.00
2018-03-06T02:43:30.531Z,26.10
2018-03-06T02:48:34.768Z,25.00
2018-03-06T02:53:39.012Z,29.83
2018-03-06T02:58:41.695Z,25.93
2018-03-06T03:03:45.903Z,28.20
2018-03-06T03:08:49.312Z,27.00
2018-03-06T03:13:52.797Z,30.53
2018-03-06T03:18:56.097Z,26.47
2018-03-06T03:23:58.662Z,32.57
2018-03-06T03:29:01.201Z,29.53
2018-03-06T03:34:03.779Z,28.60
2018-03-06T03:39:06.358Z,25.47
2018-03-06T03:44:09.237Z,28.07
2018-03-06T03:49:12.082Z,34.57
2018-03-06T03:54:14.870Z,26.50
2018-03-06T03:59:17.770Z,29.60
2018-03-06T04:04:20.395Z,26.00
2018-03-06T04:09:23.998Z,26.70
2018-03-06T04:14:26.849Z,26.37
2018-03-06T04:19:30.305Z,28.00
2018-03-06T04:24:33.015Z,27.80
2018-03-06T04:29:35.840Z,28.50
2018-03-06T04:34:38.524Z,25.60
2018-03-06T04:39:41.422Z,25.87
2018-03-06T04:44:47.367Z,25.27
2018-03-06T04:49:50.156Z,28.60
2018-03-06T04:54:53.585Z,27.87
2018-03-06T04:59:56.902Z,31.00
2018-03-06T05:05:00.162Z,27.73
2018-03-06T05:10:03.466Z,30.27
2018-03-06T05:15:06.938Z,34.73
2018-03-06T05:20:10.191Z,29.20
2018-03-06T05:25:14.265Z,28.93
2018-03-06T05:30:17.570Z,29.53
2018-03-06T05:35:20.443Z,28.33
2018-03-06T05:40:24.129Z,28.53
2018-03-06T05:45:28.358Z,31.47
2018-03-06T05:50:30.946Z,31.50
2018-03-06T05:55:33.558Z,31.20
2018-03-06T06:00:39.487Z,27.00
2018-03-06T06:05:42.067Z,28.77
2018-03-06T06:10:44.716Z,25.47
2018-03-06T06:15:47.635Z,27.20
2018-03-06T06:20:50.469Z,24.80
2018-03-06T06:25:53.770Z,28.13
2018-03-06T06:30:57.023Z,32.70
2018-03-06T06:35:59.865Z,27.77
2018-03-06T06:41:03.163Z,29.57
2018-03-06T06:46:07.346Z,24.10
2018-03-06T06:51:10.219Z,30.57
2018-03-06T06:56:15.115Z,27.03
2018-03-06T07:01:17.997Z,28.37
2018-03-06T07:06:20.610Z,27.43
2018-03-06T07:11:23.268Z,27.30
2018-03-06T07:16:26.879Z,31.73
2018-03-06T07:21:30.132Z,27.47
2018-03-06T07:26:33.004Z,25.83
2018-03-06T07:31:36.308Z,28.77
2018-03-06T07:36:39.723Z,31.07
2018-03-06T07:41:42.348Z,30.50
2018-03-06T07:46:45.820Z,28.73
2018-03-06T07:51:49.243Z,25.60
2018-03-06T07:56:51.806Z,28.10
2018-03-06T08:01:54.681Z,26.13
2018-03-06T08:06:57.281Z,26.53
2018-03-06T08:12:03.112Z,26.97
2018-03-06T08:17:06.301Z,25.33
2018-03-06T08:22:09.952Z,26.33
2018-03-06T08:27:13.347Z,26.27
2018-03-06T08:32:18.243Z,24.80
2018-03-06T08:37:21.476Z,28.77
2018-03-06T08:42:24.063Z,27.80
2018-03-06T08:47:26.914Z,28.33
2018-03-06T08:52:29.499Z,25.60
2018-03-06T08:57:32.122Z,25.43
2018-03-06T09:02:35.011Z,25.77
2018-03-06T09:07:38.687Z,29.07
2018-03-06T09:12:41.287Z,30.97
2018-03-06T09:17:44.205Z,28.17
2018-03-06T09:22:47.099Z,27.60
2018-03-06T09:27:49.994Z,31.23
2018-03-06T09:32:52.623Z,26.50
2018-03-06T09:37:55.903Z,26.10
2018-03-06T09:42:58.499Z,26.90
2018-03-06T09:48:01.077Z,23.07
2018-03-06T09:53:03.881Z,28.40
2018-03-06T09:58:07.496Z,29.07
2018-03-06T10:03:10.335Z,26.87
2018-03-06T10:08:13.227Z,24.77
2018-03-06T10:13:17.219Z,26.00
2018-03-06T10:18:20.525Z,27.50
2018-03-06T10:23:23.713Z,24.57
2018-03-06T10:28:27.276Z,28.40
2018-03-06T10:33:32.310Z,26.93
2018-03-06T10:38:35.172Z,24.80
2018-03-06T10:43:38.527Z,25.60
2018-03-06T10:48:41.322Z,28.83
2018-03-06T10:53:44.130Z,25.47
2018-03-06T10:58:47.483Z,27.67
2018-03-06T11:03:51.566Z,25.70
2018-03-06T11:08:54.162Z,25.10
2018-03-06T11:13:56.771Z,25.00
2018-03-06T11:18:59.371Z,27.27
2018-03-06T11:24:02.763Z,28.07
2018-03-06T11:29:05.563Z,24.93
2018-03-06T11:34:08.140Z,23.50
2018-03-06T11:39:10.762Z,24.20
2018-03-06T11:44:13.414Z,24.47
2018-03-06T11:49:16.267Z,26.10
2018-03-06T11:54:19.512Z,23.47
2018-03-06T11:59:23.106Z,24.30
2018-03-06T12:04:26.463Z,27.27
2018-03-06T12:09:29.836Z,22.53
2018-03-06T12:14:32.717Z,23.37
2018-03-06T12:19:35.980Z,25.13
2018-03-06T12:24:38.570Z,24.87
2018-03-06T12:29:41.429Z,22.10
2018-03-06T12:34:44.243Z,22.93
2018-03-06T12:39:46.824Z,24.43
2018-03-06T12:44:50.073Z,22.43
2018-03-06T12:49:53.411Z,24.60
2018-03-06T12:54:56.245Z,23.43
2018-03-06T12:59:59.056Z,25.43
2018-03-06T13:05:01.911Z,27.30
2018-03-06T13:10:04.488Z,26.70
2018-03-06T13:15:07.337Z,22.47
2018-03-06T13:20:10.770Z,23.57
2018-03-06T13:25:13.366Z,25.17
2018-03-06T13:30:17.575Z,23.30
2018-03-06T13:35:22.215Z,24.30
2018-03-06T13:40:26.263Z,23.53
2018-03-06T13:45:29.625Z,24.40
2018-03-06T13:50:32.966Z,21.97
2018-03-06T13:55:36.227Z,24.70
2018-03-06T14:00:39.118Z,25.50
2018-03-06T14:05:41.950Z,24.97
2018-03-06T14:10:45.177Z,27.10
2018-03-06T14:15:47.754Z,27.50
2018-03-06T14:20:51.059Z,28.50
2018-03-06T14:25:54.134Z,28.60
2018-03-06T14:30:57.114Z,27.73
2018-03-06T14:36:00.218Z,27.50
2018-03-06T14:41:04.798Z,26.80
2018-03-06T14:46:07.799Z,26.43
2018-03-06T14:51:10.496Z,27.27
2018-03-06T14:56:13.915Z,26.80
2018-03-06T15:01:17.353Z,35.37
2018-03-06T15:06:20.736Z,26.33
2018-03-06T15:11:23.341Z,28.20
2018-03-06T15:16:26.051Z,28.10
2018-03-06T15:21:29.482Z,27.97
2018-03-06T15:26:32.424Z,25.57
2018-03-06T15:31:35.749Z,27.40
2018-03-06T15:36:38.398Z,27.80
2018-03-06T15:41:44.314Z,28.03
2018-03-06T15:46:47.620Z,25.20
2018-03-06T15:51:51.781Z,25.03
2018-03-06T15:56:54.627Z,26.40
2018-03-06T16:01:57.172Z,27.73
2018-03-06T16:06:59.764Z,29.10
2018-03-06T16:12:02.625Z,26.00
2018-03-06T16:17:05.246Z,29.47
2018-03-06T16:22:08.184Z,27.60
2018-03-06T16:27:11.496Z,27.13
2018-03-06T16:32:14.145Z,30.50
2018-03-06T16:37:16.881Z,29.70
2018-03-06T16:42:19.556Z,30.80
2018-03-06T16:47:22.847Z,29.27
2018-03-06T16:52:26.248Z,29.67
2018-03-06T16:57:29.022Z,31.57
2018-03-06T17:02:32.443Z,29.93
2018-03-06T17:07:36.471Z,31.80
2018-03-06T17:12:40.181Z,29.47
2018-03-06T17:17:42.766Z,29.57
2018-03-06T17:22:45.662Z,30.83
2018-03-06T17:27:48.251Z,31.80
2018-03-06T17:32:50.858Z,31.93
2018-03-06T17:37:53.514Z,29.67
2018-03-06T17:42:56.054Z,30.03
2018-03-06T17:47:58.667Z,28.27
2018-03-06T17:53:01.191Z,31.60
2018-03-06T17:58:03.915Z,31.00
2018-03-06T18:03:07.326Z,30.50
2018-03-06T18:08:11.480Z,31.80
2018-03-06T18:13:16.122Z,31.33
2018-03-06T18:18:19.467Z,30.03
2018-03-06T18:23:22.267Z,32.10
2018-03-06T18:28:25.066Z,33.00
2018-03-06T18:33:28.645Z,29.23
2018-03-06T18:38:32.807Z,34.10
2018-03-06T18:43:36.794Z,31.63
2018-03-06T18:48:39.623Z,31.97
2018-03-06T18:53:42.227Z,31.17
2018-03-06T18:58:45.619Z,32.00
2018-03-06T19:04:00.323Z,30.90
2018-03-06T19:09:03.194Z,31.17
2018-03-06T19:14:07.338Z,32.90
2018-03-06T19:19:10.142Z,34.17
2018-03-06T19:24:13.000Z,34.10
2018-03-06T19:29:16.613Z,32.30
2018-03-06T19:34:20.314Z,31.20
2018-03-06T19:39:24.247Z,31.50
2018-03-06T19:44:26.877Z,31.37
2018-03-06T19:49:29.700Z,30.40
2018-03-06T19:54:33.048Z,35.10
2018-03-06T19:59:36.336Z,32.37
2018-03-06T20:04:39.910Z,33.60
2018-03-06T20:09:43.086Z,31.97
2018-03-06T21:32:21.230Z,58.60
2018-03-06T21:37:24.037Z,40.73
2018-03-06T21:42:26.900Z,33.47
2018-03-06T21:47:29.721Z,37.70
2018-03-06T21:52:32.380Z,37.00
2018-03-06T21:57:35.058Z,43.57
2018-03-06T22:02:38.631Z,37.17
2018-03-06T22:07:41.508Z,40.13
2018-03-06T22:12:44.457Z,34.90
2018-03-06T22:17:48.066Z,34.33
2018-03-06T22:22:50.934Z,36.63
2018-03-06T22:27:54.292Z,32.93
2018-03-06T22:32:56.941Z,37.00
2018-03-06T22:37:59.617Z,35.57
2018-03-06T22:43:02.951Z,41.97
2018-03-06T22:48:05.606Z,42.60
2018-03-06T22:53:09.075Z,42.57
2018-03-06T22:58:12.629Z,39.13
2018-03-06T23:03:15.294Z,39.50
2018-03-06T23:08:19.626Z,39.70
2018-03-06T23:13:23.400Z,39.10
2018-03-06T23:18:26.094Z,40.23
2018-03-06T23:23:29.006Z,35.50
2018-03-06T23:28:31.889Z,38.23
2018-03-06T23:33:35.276Z,37.87
2018-03-06T23:38:38.927Z,32.37
2018-03-06T23:43:42.580Z,33.67
2018-03-06T23:48:46.893Z,35.50
2018-03-06T23:53:49.540Z,34.47
2018-03-06T23:58:52.211Z,36.20
